OEDF/DMM METAR and TAF weather

Enter ICAO airport designator
Station Type Date Time Source
OEDF METAR 2022/11/27 08:00 UTC NOAA

OEDF 270800Z 30009KT CAVOK 29/10 Q1015 NOSIG


Station Type Date Time Source
OEDF Decoded METAR 2022/11/27 08:00 UTC NOAA

Dammam-King Fahd International Airport, Saudi Arabia (OEDF) 26-28N 049-47E
Nov 27, 2022 - 03:00 AM EST / 2022.11.27 0800 UTC
Wind: from the WNW (300 degrees) at 10 MPH (9 KT):0
Visibility: greater than 7 mile(s):0
Temperature: 84 F (29 C)
Dew Point: 50 F (10 C)
Relative Humidity: 30%
Pressure (altimeter): 29.97 in. Hg (1015 hPa)
ob: OEDF 270800Z 30009KT CAVOK 29/10 Q1015 NOSIG
cycle: 8

Station Type Date Time Source
OEDF TAF 2022/11/27 06:33 UTC NOAA

TAF TAF OEDF 270300Z 2706/2812 36010KT CAVOK
BECMG 2716/2718 VRB03KT
TEMPO 2721/2806 3000 BR NSC PROB30
TEMPO 2800/2805 0500 FG

Example: see airport list